createdAt,value
2022-12-08T00:01:31.328Z,13.70
2022-12-08T00:03:59.502Z,18.53
2022-12-08T00:06:49.182Z,17.13
2022-12-08T00:09:22.358Z,20.83
2022-12-08T00:11:50.037Z,17.97
2022-12-08T00:14:17.011Z,17.77
2022-12-08T00:16:43.956Z,16.20
2022-12-08T00:19:10.977Z,17.33
2022-12-08T00:21:37.859Z,16.73
2022-12-08T00:24:04.876Z,16.37
2022-12-08T00:26:31.745Z,16.73
2022-12-08T00:28:58.612Z,17.63
2022-12-08T00:31:25.433Z,18.97
2022-12-08T00:33:52.278Z,17.87
2022-12-08T00:36:19.184Z,17.23
2022-12-08T00:38:48.025Z,21.17
2022-12-08T00:41:43.910Z,17.60
2022-12-08T00:44:13.505Z,21.33
2022-12-08T00:46:40.756Z,19.23
2022-12-08T00:49:08.587Z,17.77
2022-12-08T00:51:35.480Z,19.70
2022-12-08T00:54:02.302Z,17.00
2022-12-08T00:56:29.206Z,19.50
2022-12-08T00:58:56.190Z,19.37
2022-12-08T01:01:25.860Z,18.40
2022-12-08T01:03:53.265Z,16.57
2022-12-08T01:06:20.164Z,21.60
2022-12-08T01:08:47.039Z,19.13
2022-12-08T01:11:16.625Z,17.53
2022-12-08T01:13:45.637Z,18.53
2022-12-08T01:16:35.384Z,26.20
2022-12-08T01:19:02.834Z,16.00
2022-12-08T01:21:32.802Z,19.30
2022-12-08T01:24:00.771Z,18.23
2022-12-08T01:26:27.643Z,17.67
2022-12-08T01:28:54.582Z,17.90
2022-12-08T01:31:22.506Z,19.17
2022-12-08T01:33:50.076Z,20.40
2022-12-08T01:36:25.528Z,25.17
2022-12-08T01:38:52.877Z,18.13
2022-12-08T01:41:22.158Z,21.00
2022-12-08T01:43:54.779Z,21.23
2022-12-08T01:46:21.860Z,21.10
2022-12-08T01:48:50.525Z,22.80
2022-12-08T01:51:18.226Z,19.50
2022-12-08T01:53:45.204Z,19.73
2022-12-08T01:56:26.369Z,17.80
2022-12-08T01:58:55.651Z,19.93
2022-12-08T02:01:22.751Z,17.33
2022-12-08T02:03:59.521Z,17.47
2022-12-08T02:06:29.691Z,18.03
2022-12-08T02:08:57.944Z,18.97
2022-12-08T02:11:24.838Z,22.13
2022-12-08T02:37:41.409Z,18.47
2022-12-08T02:40:27.477Z,20.17
2022-12-08T02:53:26.078Z,18.60
2022-12-08T02:55:58.622Z,19.03
2022-12-08T02:58:51.716Z,21.33
2022-12-08T03:01:54.957Z,20.37
2022-12-08T03:04:54.079Z,18.80
2022-12-08T03:07:45.855Z,19.03
2022-12-08T03:10:21.448Z,20.70
2022-12-08T03:12:57.934Z,18.20
2022-12-08T03:15:26.844Z,17.57
2022-12-08T03:17:57.705Z,21.60
2022-12-08T03:20:27.513Z,18.20
2022-12-08T03:59:06.273Z,19.63
2022-12-08T04:01:33.860Z,19.80
2022-12-08T04:22:54.446Z,22.47
2022-12-08T04:25:21.567Z,22.17
2022-12-08T04:27:48.333Z,25.53
2022-12-08T04:30:15.142Z,21.73
2022-12-08T04:32:47.183Z,17.93
2022-12-08T04:35:14.787Z,21.23
2022-12-08T04:37:43.236Z,19.73
2022-12-08T04:40:11.100Z,20.57
2022-12-08T04:42:38.466Z,21.10
2022-12-08T04:45:06.121Z,19.00
2022-12-08T04:47:33.595Z,21.80
2022-12-08T04:50:00.497Z,20.47
2022-12-08T04:52:27.333Z,19.80
2022-12-08T04:54:54.132Z,21.80
2022-12-08T04:57:20.890Z,21.73
2022-12-08T04:59:47.694Z,20.60
2022-12-08T05:02:14.820Z,20.03
2022-12-08T05:04:41.781Z,20.47
2022-12-08T05:07:08.667Z,18.57
2022-12-08T05:09:35.572Z,22.27
2022-12-08T05:12:02.425Z,22.43
2022-12-08T05:14:29.316Z,22.77
2022-12-08T05:16:56.164Z,24.47
2022-12-08T05:19:23.070Z,21.67
2022-12-08T05:21:50.014Z,21.30
2022-12-08T05:24:16.894Z,20.20
2022-12-08T05:26:43.672Z,24.80
2022-12-08T05:29:10.485Z,26.00
2022-12-08T05:31:37.458Z,20.40
2022-12-08T05:34:04.354Z,22.50
2022-12-08T05:36:31.165Z,21.13
2022-12-08T05:38:58.508Z,21.43
2022-12-08T05:41:25.603Z,20.77
2022-12-08T05:43:52.493Z,24.87
2022-12-08T05:46:19.563Z,21.07
2022-12-08T05:48:46.520Z,20.40
2022-12-08T05:51:22.063Z,19.70
2022-12-08T05:53:50.148Z,22.43
2022-12-08T05:56:17.907Z,19.90
2022-12-08T05:58:45.571Z,19.80
2022-12-08T06:01:22.741Z,21.30
2022-12-08T06:03:49.661Z,22.20
2022-12-08T06:06:16.821Z,23.03
2022-12-08T06:08:43.658Z,20.57
2022-12-08T06:11:10.859Z,23.67
2022-12-08T06:13:37.653Z,22.37
2022-12-08T06:16:07.813Z,27.27
2022-12-08T06:18:34.768Z,26.87
2022-12-08T06:21:10.981Z,23.83
2022-12-08T06:23:38.439Z,24.57
2022-12-08T06:26:08.343Z,23.37
2022-12-08T06:28:36.008Z,25.33
2022-12-08T06:31:13.194Z,24.10
2022-12-08T06:33:40.257Z,24.67
2022-12-08T06:36:07.422Z,28.30
2022-12-08T06:38:38.115Z,29.13
2022-12-08T06:41:07.758Z,23.70
2022-12-08T06:43:34.984Z,26.03
2022-12-08T06:46:02.290Z,25.13
2022-12-08T06:48:29.179Z,29.27
2022-12-08T06:50:56.028Z,26.20
2022-12-08T06:53:22.875Z,23.50
2022-12-08T06:56:00.783Z,26.00
2022-12-08T06:58:27.672Z,27.77
2022-12-08T07:00:54.793Z,23.43
2022-12-08T07:03:21.829Z,30.63
2022-12-08T07:06:00.264Z,26.27
2022-12-08T07:08:30.308Z,23.97
2022-12-08T07:10:57.252Z,26.53
2022-12-08T07:13:24.125Z,32.37
2022-12-08T07:15:51.243Z,27.07
2022-12-08T07:18:18.296Z,26.00
2022-12-08T07:20:45.263Z,27.27
2022-12-08T07:23:12.087Z,30.20
2022-12-08T07:25:38.926Z,29.50
2022-12-08T07:28:11.028Z,27.40
2022-12-08T07:30:38.781Z,23.93
2022-12-08T07:33:06.472Z,24.17
2022-12-08T07:35:35.013Z,26.83
2022-12-08T07:38:02.427Z,29.47
2022-12-08T07:40:29.349Z,26.83
2022-12-08T07:42:56.227Z,26.77
2022-12-08T07:45:28.320Z,28.47
2022-12-08T07:47:58.166Z,24.33
2022-12-08T07:50:25.071Z,25.83
2022-12-08T07:52:51.910Z,24.17
2022-12-08T07:55:18.742Z,28.50
2022-12-08T07:57:45.526Z,25.83
2022-12-08T08:00:12.934Z,27.20
2022-12-08T08:02:40.225Z,26.77
2022-12-08T08:05:08.019Z,25.77
2022-12-08T08:07:35.144Z,26.57
2022-12-08T08:10:02.553Z,24.73
2022-12-08T08:12:31.791Z,26.37
2022-12-08T08:15:03.155Z,28.10
2022-12-08T08:17:30.303Z,25.03
2022-12-08T08:19:57.831Z,24.70
2022-12-08T08:22:25.911Z,29.13
2022-12-08T08:24:53.904Z,24.43
2022-12-08T08:27:21.282Z,25.00
2022-12-08T08:29:48.056Z,28.03
2022-12-08T08:32:14.836Z,22.93
2022-12-08T08:34:41.741Z,23.23
2022-12-08T08:37:08.661Z,28.67
2022-12-08T08:39:36.609Z,26.83
2022-12-08T08:42:03.598Z,29.13
2022-12-08T08:44:30.524Z,28.10
2022-12-08T08:46:57.391Z,24.40
2022-12-08T08:49:24.267Z,27.20
2022-12-08T08:51:51.458Z,29.30
2022-12-08T08:54:18.416Z,28.57
2022-12-08T08:56:45.275Z,24.77
2022-12-08T08:59:12.163Z,24.57
2022-12-08T09:01:39.022Z,27.43
2022-12-08T09:04:05.882Z,28.13
2022-12-08T09:06:32.845Z,24.73
2022-12-08T09:08:59.753Z,27.77
2022-12-08T09:11:26.620Z,27.67
2022-12-08T09:13:54.626Z,26.90
2022-12-08T09:16:22.319Z,24.23
2022-12-08T09:18:52.327Z,23.33
2022-12-08T09:21:25.826Z,27.63
2022-12-08T09:23:58.414Z,24.77
2022-12-08T09:26:27.284Z,29.33
2022-12-08T09:28:55.584Z,26.97
2022-12-08T09:31:24.478Z,27.60
2022-12-08T09:33:51.788Z,29.50
2022-12-08T09:36:18.996Z,32.13
2022-12-08T09:38:46.739Z,75.67
2022-12-08T09:41:22.092Z,117.73
2022-12-08T09:44:13.689Z,31.00
2022-12-08T09:46:41.511Z,27.83
2022-12-08T09:49:15.220Z,32.23
2022-12-08T09:51:44.504Z,34.83
2022-12-08T09:54:36.504Z,36.40
2022-12-08T09:57:11.108Z,33.17
2022-12-08T09:59:38.091Z,32.63
2022-12-08T10:02:23.072Z,32.67
2022-12-08T10:04:50.251Z,31.77
2022-12-08T10:08:00.062Z,33.77
2022-12-08T10:10:45.255Z,36.47
2022-12-08T10:13:26.590Z,30.33
2022-12-08T10:16:08.552Z,27.80
2022-12-08T10:18:37.788Z,30.50
2022-12-08T10:21:20.553Z,31.17
2022-12-08T10:23:58.811Z,27.23
2022-12-08T10:26:25.782Z,29.47
2022-12-08T10:28:52.809Z,29.93
2022-12-08T10:31:24.831Z,27.43
2022-12-08T10:34:10.516Z,31.77
2022-12-08T10:36:53.012Z,27.93
2022-12-08T10:39:45.617Z,27.07
2022-12-08T10:42:15.642Z,27.93
2022-12-08T10:44:58.325Z,31.50
2022-12-08T10:47:27.438Z,23.20
2022-12-08T10:50:36.695Z,26.23
2022-12-08T10:53:09.715Z,24.73
2022-12-08T10:55:41.230Z,32.07
2022-12-08T10:58:24.428Z,26.70
2022-12-08T11:01:18.818Z,29.53
2022-12-08T11:03:48.113Z,27.83
2022-12-08T11:06:30.685Z,27.57
2022-12-08T11:09:01.090Z,27.70
2022-12-08T11:11:45.572Z,28.77
2022-12-08T11:14:38.074Z,30.13
2022-12-08T11:17:08.377Z,29.57
2022-12-08T11:19:43.753Z,28.20
2022-12-08T11:22:46.463Z,26.30
2022-12-08T11:25:27.719Z,25.83
2022-12-08T11:27:57.979Z,28.47
2022-12-08T11:30:24.732Z,27.80
2022-12-08T11:33:17.924Z,27.43
2022-12-08T11:35:49.909Z,29.43
2022-12-08T11:38:22.817Z,30.77
2022-12-08T11:41:17.349Z,27.67
2022-12-08T11:44:01.827Z,29.47
2022-12-08T11:46:43.637Z,28.93
2022-12-08T11:49:13.515Z,27.47
2022-12-08T11:52:02.267Z,27.27
2022-12-08T11:54:35.086Z,26.60
2022-12-08T11:57:04.813Z,24.23
2022-12-08T11:59:46.290Z,25.30
2022-12-08T12:02:22.580Z,24.97
2022-12-08T12:05:07.790Z,22.67
2022-12-08T12:07:57.674Z,23.23
2022-12-08T12:10:51.471Z,26.03
2022-12-08T12:13:32.267Z,22.23
2022-12-08T12:15:59.006Z,24.33
2022-12-08T12:18:45.488Z,21.57
2022-12-08T12:21:34.065Z,23.07
2022-12-08T12:24:05.779Z,22.43
2022-12-08T12:26:37.563Z,19.07
2022-12-08T12:29:16.261Z,18.47
2022-12-08T12:31:49.466Z,18.93
2022-12-08T12:34:25.911Z,21.07
2022-12-08T12:36:57.784Z,18.47
2022-12-08T12:39:30.809Z,17.67
2022-12-08T12:42:00.966Z,16.27
2022-12-08T12:44:33.908Z,16.57
2022-12-08T12:47:02.488Z,19.47
2022-12-08T12:49:48.752Z,22.07
2022-12-08T12:52:15.486Z,18.20
2022-12-08T12:54:43.869Z,19.13
2022-12-08T12:57:13.669Z,20.17
2022-12-08T12:59:42.739Z,18.03
2022-12-08T13:02:37.085Z,19.20
2022-12-08T13:05:03.916Z,19.27
2022-12-08T13:07:42.183Z,18.90
2022-12-08T13:10:17.965Z,21.60
2022-12-08T13:12:46.473Z,20.17
2022-12-08T13:15:20.874Z,22.60
2022-12-08T13:17:49.235Z,20.00
2022-12-08T13:20:23.090Z,18.67
2022-12-08T13:23:37.139Z,19.17
2022-12-08T13:26:28.101Z,17.20
2022-12-08T13:29:07.166Z,17.73
2022-12-08T13:31:48.300Z,19.27
2022-12-08T13:34:27.641Z,18.93
2022-12-08T13:37:27.792Z,19.87
2022-12-08T13:40:06.523Z,17.33
2022-12-08T13:42:58.960Z,19.50
2022-12-08T13:46:12.278Z,16.87
2022-12-08T13:50:05.839Z,18.63
2022-12-08T13:53:49.737Z,21.20
2022-12-08T13:55:35.517Z,20.13
2022-12-08T13:57:34.319Z,20.13
2022-12-08T14:00:05.086Z,20.20
2022-12-08T14:02:48.150Z,22.20
2022-12-08T14:05:19.030Z,19.60
2022-12-08T14:07:56.397Z,19.63
2022-12-08T14:10:27.380Z,23.60
2022-12-08T14:13:03.817Z,20.97
2022-12-08T14:15:37.736Z,20.37
2022-12-08T14:18:06.698Z,21.93
2022-12-08T14:20:51.872Z,22.60
2022-12-08T14:23:21.842Z,20.87
2022-12-08T14:25:48.817Z,23.60
2022-12-08T14:28:16.559Z,23.37
2022-12-08T14:30:43.500Z,23.23
2022-12-08T14:33:16.950Z,22.43
2022-12-08T14:35:50.730Z,24.10
2022-12-08T14:38:19.930Z,22.53
2022-12-08T14:41:01.593Z,22.93
2022-12-08T14:43:30.377Z,24.17
2022-12-08T14:46:06.370Z,23.77
2022-12-08T14:48:38.872Z,26.80
2022-12-08T14:51:23.760Z,23.07
2022-12-08T14:53:59.107Z,25.37
2022-12-08T14:56:46.745Z,25.40
2022-12-08T14:59:19.177Z,26.40
2022-12-08T15:01:47.485Z,26.57
2022-12-08T15:04:17.006Z,27.57
2022-12-08T15:06:53.675Z,26.50
2022-12-08T15:09:41.535Z,24.23
2022-12-08T15:12:14.107Z,29.37
2022-12-08T15:14:43.227Z,27.50
2022-12-08T15:17:34.326Z,29.37
2022-12-08T15:20:02.694Z,26.80
2022-12-08T15:22:31.293Z,26.80
2022-12-08T15:24:58.301Z,25.23
2022-12-08T15:27:26.226Z,26.40
2022-12-08T15:29:53.792Z,25.33
2022-12-08T15:32:22.971Z,26.50
2022-12-08T15:34:50.354Z,28.37
2022-12-08T15:37:26.368Z,27.50
2022-12-08T15:39:53.392Z,24.90
2022-12-08T15:42:20.172Z,28.13
2022-12-08T15:44:47.139Z,29.93
2022-12-08T15:47:24.797Z,26.03
2022-12-08T15:49:55.467Z,23.70
2022-12-08T15:52:24.726Z,31.20
2022-12-08T15:54:51.691Z,26.93
2022-12-08T16:00:53.408Z,28.87
2022-12-08T16:09:12.447Z,25.20
2022-12-08T16:12:08.353Z,32.20
2022-12-08T16:17:23.650Z,25.20
2022-12-08T16:19:50.468Z,25.83
2022-12-08T16:25:21.809Z,26.60
2022-12-08T16:28:05.430Z,28.42
2022-12-08T16:30:35.899Z,27.53
2022-12-08T16:33:02.799Z,30.13
2022-12-08T16:35:30.242Z,28.17
2022-12-08T16:37:57.425Z,31.13
2022-12-08T16:40:24.231Z,32.43
2022-12-08T16:42:51.077Z,30.73
2022-12-08T16:45:23.931Z,29.03
2022-12-08T16:47:53.850Z,37.67
2022-12-08T16:50:24.488Z,33.40
2022-12-08T16:53:00.401Z,28.60
2022-12-08T16:55:27.502Z,31.57
2022-12-08T16:57:54.418Z,33.03
2022-12-08T17:00:24.140Z,28.83
2022-12-08T17:02:51.818Z,28.93
2022-12-08T17:05:21.127Z,27.03
2022-12-08T17:07:50.100Z,24.73
2022-12-08T17:10:29.160Z,27.70
2022-12-08T17:12:56.778Z,26.40
2022-12-08T17:15:26.063Z,24.90
2022-12-08T17:17:53.480Z,27.97
2022-12-08T17:20:23.082Z,26.67
2022-12-08T17:22:50.091Z,29.07
2022-12-08T17:25:16.995Z,31.33
2022-12-08T17:27:43.891Z,29.53
2022-12-08T17:30:15.501Z,33.93
2022-12-08T17:32:43.763Z,38.07
2022-12-08T17:35:11.317Z,39.03
2022-12-08T17:37:38.277Z,34.87
2022-12-08T17:40:06.221Z,36.70
2022-12-08T17:42:33.348Z,36.00
2022-12-08T17:45:00.120Z,37.73
2022-12-08T17:47:27.048Z,39.13
2022-12-08T17:49:53.876Z,61.67
2022-12-08T17:52:20.695Z,84.23
2022-12-08T17:54:50.537Z,104.40
2022-12-08T17:57:17.377Z,43.60
2022-12-08T17:59:44.284Z,55.13
2022-12-08T18:02:12.109Z,48.07
2022-12-08T18:04:39.039Z,48.90
2022-12-08T18:07:05.882Z,46.80
2022-12-08T18:09:33.729Z,47.73
2022-12-08T18:12:00.767Z,42.03
2022-12-08T18:14:27.829Z,41.50
2022-12-08T18:16:54.701Z,44.00
2022-12-08T18:19:21.686Z,43.37
2022-12-08T18:21:48.530Z,41.83
2022-12-08T18:24:22.141Z,41.77
2022-12-08T18:26:52.134Z,43.27
2022-12-08T18:29:20.139Z,43.47
2022-12-08T18:31:50.355Z,40.53
2022-12-08T18:34:19.093Z,43.60
2022-12-08T18:36:46.505Z,48.63
2022-12-08T18:39:25.971Z,47.27
2022-12-08T18:41:53.652Z,40.87
2022-12-08T18:44:20.588Z,45.83
2022-12-08T18:46:47.701Z,47.93
2022-12-08T18:49:16.376Z,48.77
2022-12-08T18:51:43.856Z,57.03
2022-12-08T18:54:12.118Z,44.63
2022-12-08T18:56:39.839Z,80.10
2022-12-08T18:59:10.427Z,104.20
2022-12-08T19:01:38.776Z,76.50
2022-12-08T19:06:55.003Z,57.10
2022-12-08T19:09:22.821Z,73.20
2022-12-08T19:11:49.728Z,170.20
2022-12-08T19:14:16.795Z,109.73
2022-12-08T19:16:43.675Z,44.70
2022-12-08T19:19:10.542Z,119.50
2022-12-08T19:21:43.007Z,95.80
2022-12-08T19:24:13.070Z,51.83
2022-12-08T19:26:40.151Z,123.80
2022-12-08T19:29:06.976Z,50.87
2022-12-08T19:31:33.874Z,49.53
2022-12-08T19:34:00.688Z,48.83
2022-12-08T19:36:27.766Z,46.50
2022-12-08T19:39:13.059Z,46.97
2022-12-08T19:41:58.331Z,44.23
2022-12-08T19:44:46.387Z,50.43
2022-12-08T19:47:13.805Z,70.63
2022-12-08T19:49:40.767Z,43.43
2022-12-08T19:52:07.852Z,45.50
2022-12-08T19:54:34.997Z,44.53
2022-12-08T19:57:02.526Z,44.43
2022-12-08T19:59:30.337Z,55.57
2022-12-08T20:02:00.446Z,47.07
2022-12-08T20:04:27.729Z,90.73
2022-12-08T20:06:56.085Z,65.13
2022-12-08T20:09:23.955Z,48.90
2022-12-08T20:11:51.215Z,51.13
2022-12-08T20:14:18.511Z,47.47
2022-12-08T20:16:45.536Z,46.60
2022-12-08T20:19:12.472Z,49.50
2022-12-08T20:21:40.188Z,47.43
2022-12-08T20:24:07.310Z,49.37
2022-12-08T20:26:34.759Z,47.57
2022-12-08T20:29:01.574Z,49.37
2022-12-08T20:31:30.999Z,51.97
2022-12-08T20:33:58.094Z,61.03
2022-12-08T20:36:27.589Z,53.43
2022-12-08T20:38:58.812Z,51.77
2022-12-08T20:41:25.653Z,56.67
2022-12-08T20:43:52.784Z,51.87
2022-12-08T20:46:21.118Z,50.00
2022-12-08T20:48:48.511Z,49.33
2022-12-08T20:51:18.095Z,45.40
2022-12-08T20:53:45.830Z,44.03
2022-12-08T20:56:21.776Z,45.47
2022-12-08T20:58:49.606Z,52.10
2022-12-08T21:01:19.960Z,54.13
2022-12-08T21:03:49.141Z,52.37
2022-12-08T21:06:16.639Z,52.07
2022-12-08T21:08:43.859Z,48.50
2022-12-08T21:11:10.938Z,48.47
2022-12-08T21:13:39.080Z,54.20
2022-12-08T21:16:06.480Z,44.43
2022-12-08T21:18:39.136Z,44.07
2022-12-08T21:21:10.963Z,43.57
2022-12-08T21:23:38.403Z,39.17
2022-12-08T21:26:20.524Z,36.57
2022-12-08T21:28:47.909Z,42.03
2022-12-08T21:31:17.447Z,43.40
2022-12-08T21:33:44.780Z,43.37
2022-12-08T21:36:22.261Z,43.03
2022-12-08T21:38:49.366Z,49.30
2022-12-08T21:41:42.037Z,43.27
2022-12-08T21:44:15.240Z,48.03
2022-12-08T21:46:42.775Z,38.93
2022-12-08T21:49:09.864Z,39.97
2022-12-08T21:51:41.844Z,43.30
2022-12-08T21:54:14.980Z,45.23
2022-12-08T21:56:46.281Z,41.90
2022-12-08T21:59:13.203Z,45.57
2022-12-08T22:01:43.765Z,41.43
2022-12-08T22:04:12.282Z,44.67
2022-12-08T22:06:39.618Z,45.00
2022-12-08T22:09:07.200Z,45.03
2022-12-08T22:11:34.419Z,53.27
2022-12-08T22:14:01.350Z,57.40
2022-12-08T22:16:28.529Z,43.63
2022-12-08T22:18:55.442Z,43.33
2022-12-08T22:21:22.324Z,44.07
2022-12-08T22:23:49.785Z,46.73
2022-12-08T22:26:16.740Z,44.53
2022-12-08T22:28:44.426Z,43.80
2022-12-08T22:31:14.399Z,46.23
2022-12-08T22:33:41.949Z,47.73
2022-12-08T22:36:14.875Z,43.47
2022-12-08T22:38:42.105Z,51.00
2022-12-08T22:41:09.381Z,51.20
2022-12-08T22:43:37.340Z,48.50
2022-12-08T22:46:13.204Z,49.10
2022-12-08T22:48:40.133Z,49.47
2022-12-08T22:51:07.243Z,44.87
2022-12-08T22:53:34.180Z,50.93
2022-12-08T22:56:05.218Z,49.17
2022-12-08T22:58:32.345Z,42.57
2022-12-08T23:00:59.142Z,48.27
2022-12-08T23:03:26.085Z,42.40
2022-12-08T23:05:52.958Z,53.50
2022-12-08T23:08:20.145Z,52.27
2022-12-08T23:10:50.139Z,53.77
2022-12-08T23:13:16.986Z,48.20
2022-12-08T23:15:44.076Z,49.70
2022-12-08T23:18:16.660Z,50.27
2022-12-08T23:20:43.683Z,54.77
2022-12-08T23:23:10.596Z,43.73
2022-12-08T23:25:42.141Z,54.20
2022-12-08T23:28:10.213Z,54.60
2022-12-08T23:30:42.329Z,53.67
2022-12-08T23:33:09.410Z,51.00
2022-12-08T23:35:36.348Z,51.00
2022-12-08T23:38:03.645Z,49.90
2022-12-08T23:40:31.032Z,52.13
2022-12-08T23:42:57.855Z,50.13
2022-12-08T23:45:24.697Z,52.67
2022-12-08T23:47:51.782Z,47.60
2022-12-08T23:50:18.722Z,51.33
2022-12-08T23:52:45.936Z,47.80
2022-12-08T23:55:13.102Z,48.73
2022-12-08T23:57:40.077Z,45.93
